Terminal Aerodrome Forecast
Issued by NWS

Home | Current Version | Previous Version | Text Only | Print | Product List | Glossary On
Versions: 1 2 3 4 5 6 7 8 9 10 11 12 13 14 15 16 17 18
000
FTUS41 KCAR 291700 RRA
TAFHUL
TAF
KHUL 291745Z 2918/3018 24009KT P6SM SCT025 BKN035
     FM292100 24006KT P6SM SCT250
     FM300200 00000KT P6SM SKC
     FM300500 00000KT 3SM BR SKC
     FM300800 00000KT 1/2SM FG SCT001
     FM301000 00000KT 3SM BR SKC
     FM301100 16005KT P6SM SKC=

USA.gov is the U.S. government's official web portal to all federal, state and local government web resources and services.